بغداد, العراق

01:10 PM AST on أعس×س 30, 2014 (GMT +0300)
BAGHDAD INTL | Change Station
CLOSE
Current Station
Airport
Location: BAGHDAD INTL,
Elevation: 115 ft
Nearby Weather Stations

Elev 115 ft 33.26 °N, 44.23 °E | Updated 10 minutes ago

Clear
صافية
111 °F
Feels Like 111 °F
N
7
ريح متغير ريح from NW

هذا اليوم
High -- | Low -- °F
--% Chance of Precip.
Yesterday
High -- | Low -- °F
Precip. -- في
5:35 AM 6:31 PM
الهلال الأول, 21% visible
الضغط 29.62 في
وضوح الرؤية -9999.0 أميال
سحابات
نقطة الندى 46 °F
الرطوبة 12%
Rainfall 0.00 في
عمق الثلج Not available.
الأشعة فوق البنفسجية Not available.
Pollen Not available.
جودة الهواء Not available.
Flu Activity Not available.
METAR ORBI 301000Z 32006KT 260V030 CAVOK 44/08 Q1003 NOSIG

More Conditions Fewer Conditions

الضغط 29.62 في
وضوح الرؤية -9999.0 أميال
سحابات
نقطة الندى 46 °F
الرطوبة 12%
Rainfall 0.00 في
عمق الثلج Not available.
الأشعة فوق البنفسجية Not available.
Pollen Not available.
جودة الهواء Not available.
Flu Activity Not available.
METAR ORBI 301000Z 32006KT 260V030 CAVOK 44/08 Q1003 NOSIG

More Conditions Fewer Conditions

10-Day Weather Forecast

Almanac

علم الفلك

Aug. 30, 2014 Rise Set
Actual Time 5:35 AM AST 6:31 PM AST
Civil Twilight 5:10 AM AST 6:56 PM AST
Nautical Twilight 4:40 AM AST 7:26 PM AST
Astronomical Twilight 4:09 AM AST 7:57 PM AST
قمر 9:46 AM AST 9:07 PM AST
Length Of Visible Light 13h 46m
طول الیوم
12h 55m
Tomorrow will be 1m 57s shorter.
الهلال الأول, 21% of the Moon is Illuminated
هذا اليوم
الهلال الأول
Sep 2
الربع الاول
Sep 8
بدر
Sep 15
الربع الآخر
Sep 24
New

Yesterday's Extremes

Country Highs Country Lows

Community

WunderPhotos

Upload Photos

1,748,481 photos uploaded!

Nearby

جودة الهواء

Not available.

عمق الثلج

Not available.

Earthquake Activity

City Distance Mag. Time & Date
No recent earthquake activity has been reported nearby.
Minimum magnitude displayed is 2.5.

Coastal Water Temperatures

مكان درجات الحرارة
No Stations Reporting

Nearby Weather Stations